TRA11T EHAM-LPPR
Flight info
| Callsign | TRA11T |
|---|---|
| Flight time | N/A |
| Altitude | 38000 |
| Route | WOODY N872 MEDIL DCT KOVIN/N0441F370 DCT NIDUV DCT KIHVI UN872 ERIGA UZ218 FUJTI DCT ATLEN DCT INSID T326 ASPOR |
| Aircraft | A21N/M-SDE3FGHIRWY/LB1 |
Departure
| Time | 2026-04-27 13:16 |
|---|---|
| Airport | Amsterdam Airport Schiphol (EHAM) |
Arrival
| Time | N/A |
|---|---|
| Airport | Francisco de Sá Carneiro Airport (LPPR) |
| Time | Latitude | Longitude | Altitude | Speed | Heading |
|---|---|---|---|---|---|
| 2026-04-27 12:17 | 52.30458 | 4.76715 | -1 ft | 0 kts | 332° |
| 2026-04-27 12:18 | 52.30461 | 4.76712 | 0 ft | 0 kts | 334° |
| 2026-04-27 12:59 | 52.30459 | 4.76714 | -1 ft | 3 kts | 335° |
| 2026-04-27 13:00 | 52.30434 | 4.76728 | -1 ft | 4 kts | 338° |
| 2026-04-27 13:00 | 52.30412 | 4.76747 | -1 ft | 4 kts | 307° |
| 2026-04-27 13:00 | 52.30405 | 4.76784 | -1 ft | 4 kts | 260° |
| 2026-04-27 13:00 | 52.30408 | 4.76806 | -1 ft | 0 kts | 247° |
| 2026-04-27 13:03 | 52.30406 | 4.76800 | -1 ft | 5 kts | 243° |
| 2026-04-27 13:03 | 52.30359 | 4.76686 | -1 ft | 13 kts | 238° |
| 2026-04-27 13:03 | 52.30312 | 4.76566 | -1 ft | 12 kts | 238° |
| 2026-04-27 13:04 | 52.30267 | 4.76448 | -1 ft | 16 kts | 238° |
| 2026-04-27 13:04 | 52.30205 | 4.76287 | -1 ft | 18 kts | 238° |
| 2026-04-27 13:04 | 52.30128 | 4.76085 | -1 ft | 22 kts | 238° |
| 2026-04-27 13:04 | 52.30033 | 4.75840 | -1 ft | 30 kts | 237° |
| 2026-04-27 13:05 | 52.29920 | 4.75542 | -1 ft | 31 kts | 238° |
| 2026-04-27 13:05 | 52.29834 | 4.75258 | -1 ft | 26 kts | 273° |
| 2026-04-27 13:05 | 52.29936 | 4.75020 | -1 ft | 26 kts | 311° |
| 2026-04-27 13:05 | 52.30063 | 4.74784 | 0 ft | 30 kts | 312° |
| 2026-04-27 13:06 | 52.30194 | 4.74545 | 10 ft | 27 kts | 311° |
| 2026-04-27 13:06 | 52.30321 | 4.74311 | 1 ft | 28 kts | 313° |
| 2026-04-27 13:06 | 52.30423 | 4.74198 | -1 ft | 17 kts | 353° |
| 2026-04-27 13:06 | 52.30583 | 4.74209 | -1 ft | 27 kts | 4° |
| 2026-04-27 13:07 | 52.30771 | 4.74226 | -1 ft | 27 kts | 3° |
| 2026-04-27 13:07 | 52.30959 | 4.74244 | -1 ft | 27 kts | 4° |
| 2026-04-27 13:07 | 52.31086 | 4.74257 | -1 ft | 27 kts | 3° |
| 2026-04-27 13:07 | 52.31276 | 4.74273 | -1 ft | 27 kts | 2° |
| 2026-04-27 13:08 | 52.31467 | 4.74290 | -1 ft | 27 kts | 3° |
| 2026-04-27 13:08 | 52.31659 | 4.74308 | -1 ft | 28 kts | 3° |
| 2026-04-27 13:08 | 52.31854 | 4.74327 | -1 ft | 28 kts | 3° |
| 2026-04-27 13:08 | 52.32015 | 4.74309 | -1 ft | 20 kts | 319° |
| 2026-04-27 13:09 | 52.32036 | 4.74089 | -2 ft | 21 kts | 273° |
| 2026-04-27 13:09 | 52.32047 | 4.73803 | -1 ft | 28 kts | 273° |
| 2026-04-27 13:09 | 52.32057 | 4.73480 | -1 ft | 27 kts | 277° |
| 2026-04-27 13:09 | 52.32170 | 4.73243 | -1 ft | 28 kts | 319° |
| 2026-04-27 13:10 | 52.32317 | 4.73036 | -1 ft | 28 kts | 319° |
| 2026-04-27 13:10 | 52.32468 | 4.72824 | -1 ft | 29 kts | 319° |
| 2026-04-27 13:10 | 52.32621 | 4.72608 | -1 ft | 29 kts | 318° |
| 2026-04-27 13:10 | 52.32764 | 4.72364 | -1 ft | 30 kts | 311° |
| 2026-04-27 13:11 | 52.32902 | 4.72107 | -1 ft | 30 kts | 311° |
| 2026-04-27 13:11 | 52.33043 | 4.71847 | -1 ft | 30 kts | 311° |
| 2026-04-27 13:11 | 52.33140 | 4.71654 | -1 ft | 17 kts | 296° |
| 2026-04-27 13:11 | 52.33116 | 4.71472 | -1 ft | 17 kts | 221° |
| 2026-04-27 13:12 | 52.33029 | 4.71351 | -1 ft | 16 kts | 221° |
| 2026-04-27 13:12 | 52.32952 | 4.71238 | -1 ft | 14 kts | 221° |
| 2026-04-27 13:12 | 52.32884 | 4.71139 | -1 ft | 11 kts | 227° |
| 2026-04-27 13:12 | 52.32865 | 4.71085 | -1 ft | 0 kts | 250° |
| 2026-04-27 13:13 | 52.32864 | 4.71081 | -1 ft | 1 kts | 251° |
| 2026-04-27 13:13 | 52.32862 | 4.71062 | -1 ft | 2 kts | 263° |
| 2026-04-27 13:13 | 52.32862 | 4.71053 | -2 ft | 0 kts | 268° |
| 2026-04-27 13:14 | 52.32862 | 4.71049 | -2 ft | 3 kts | 269° |
| 2026-04-27 13:15 | 52.32875 | 4.70925 | -2 ft | 12 kts | 302° |
| 2026-04-27 13:15 | 52.32959 | 4.70901 | -3 ft | 13 kts | 2° |
| 2026-04-27 13:15 | 52.32982 | 4.70903 | -3 ft | 0 kts | 2° |
| 2026-04-27 13:15 | 52.32986 | 4.70903 | -3 ft | 4 kts | 3° |
| 2026-04-27 13:16 | 52.33194 | 4.70923 | -4 ft | 66 kts | 3° |
| 2026-04-27 13:16 | 52.33869 | 4.70984 | -1 ft | 125 kts | 3° |
| 2026-04-27 13:16 | 52.34902 | 4.71080 | 44 ft | 167 kts | 2° |
| 2026-04-27 13:16 | 52.36060 | 4.71178 | 656 ft | 167 kts | 4° |
| 2026-04-27 13:17 | 52.37214 | 4.71297 | 1482 ft | 165 kts | 5° |
| 2026-04-27 13:17 | 52.38421 | 4.71428 | 1973 ft | 185 kts | 5° |
| 2026-04-27 13:17 | 52.39798 | 4.71608 | 2341 ft | 208 kts | 9° |
| 2026-04-27 13:17 | 52.41155 | 4.72561 | 2997 ft | 219 kts | 40° |
| 2026-04-27 13:18 | 52.42034 | 4.74619 | 3820 ft | 226 kts | 71° |
| 2026-04-27 13:18 | 52.42112 | 4.77201 | 4705 ft | 234 kts | 103° |
| 2026-04-27 13:18 | 52.41301 | 4.79513 | 5556 ft | 241 kts | 136° |
| 2026-04-27 13:18 | 52.39800 | 4.80788 | 6132 ft | 249 kts | 167° |
| 2026-04-27 13:19 | 52.38091 | 4.81325 | 6670 ft | 251 kts | 170° |
| 2026-04-27 13:19 | 52.36363 | 4.81802 | 7515 ft | 252 kts | 171° |
| 2026-04-27 13:19 | 52.34627 | 4.82276 | 8343 ft | 254 kts | 172° |
| 2026-04-27 13:19 | 52.32858 | 4.82767 | 8991 ft | 268 kts | 172° |
| 2026-04-27 13:20 | 52.30946 | 4.83296 | 9453 ft | 286 kts | 172° |
| 2026-04-27 13:20 | 52.28967 | 4.83848 | 10268 ft | 290 kts | 172° |
| 2026-04-27 13:20 | 52.26926 | 4.84422 | 10727 ft | 308 kts | 172° |
| 2026-04-27 13:20 | 52.24722 | 4.84757 | 11025 ft | 327 kts | 182° |
| 2026-04-27 13:21 | 52.22414 | 4.84694 | 11657 ft | 335 kts | 182° |
| 2026-04-27 13:21 | 52.20055 | 4.84642 | 12416 ft | 339 kts | 182° |
| 2026-04-27 13:21 | 52.17701 | 4.84598 | 13161 ft | 342 kts | 183° |
| 2026-04-27 13:21 | 52.15312 | 4.84554 | 13937 ft | 345 kts | 184° |
| 2026-04-27 13:22 | 52.12903 | 4.84511 | 14613 ft | 348 kts | 184° |
| 2026-04-27 13:22 | 52.10497 | 4.84467 | 15235 ft | 351 kts | 184° |
| 2026-04-27 13:22 | 52.08037 | 4.84419 | 15860 ft | 355 kts | 184° |
| 2026-04-27 13:22 | 52.05551 | 4.84367 | 16480 ft | 359 kts | 184° |
| 2026-04-27 13:23 | 52.03053 | 4.84091 | 17085 ft | 360 kts | 193° |
| 2026-04-27 13:23 | 52.00631 | 4.83072 | 17688 ft | 360 kts | 204° |
| 2026-04-27 13:23 | 51.98354 | 4.81398 | 18300 ft | 361 kts | 209° |
| 2026-04-27 13:23 | 51.96079 | 4.79594 | 18863 ft | 365 kts | 209° |
| 2026-04-27 13:24 | 51.93784 | 4.77782 | 19391 ft | 367 kts | 209° |
| 2026-04-27 13:24 | 51.92258 | 4.76581 | 19776 ft | 368 kts | 209° |
| 2026-04-27 13:24 | 51.89945 | 4.74766 | 20330 ft | 370 kts | 209° |
| 2026-04-27 13:24 | 51.87613 | 4.72947 | 20878 ft | 373 kts | 209° |
| 2026-04-27 13:25 | 51.85267 | 4.71123 | 21401 ft | 375 kts | 210° |
| 2026-04-27 13:25 | 51.82871 | 4.69261 | 21947 ft | 378 kts | 210° |
| 2026-04-27 13:25 | 51.80496 | 4.67413 | 22458 ft | 380 kts | 210° |
| 2026-04-27 13:25 | 51.78136 | 4.65577 | 22966 ft | 383 kts | 210° |
| 2026-04-27 13:26 | 51.75697 | 4.63681 | 23478 ft | 385 kts | 210° |
| 2026-04-27 13:26 | 51.73273 | 4.61800 | 23942 ft | 388 kts | 210° |
| 2026-04-27 13:26 | 51.70834 | 4.59913 | 24344 ft | 389 kts | 210° |
| 2026-04-27 13:26 | 51.68386 | 4.58024 | 24800 ft | 390 kts | 210° |
| 2026-04-27 13:27 | 51.65928 | 4.56128 | 25233 ft | 392 kts | 210° |
| 2026-04-27 13:27 | 51.63472 | 4.54230 | 25641 ft | 393 kts | 210° |
| 2026-04-27 13:27 | 51.60994 | 4.52316 | 26043 ft | 395 kts | 210° |
| 2026-04-27 13:27 | 51.58505 | 4.50396 | 26444 ft | 397 kts | 211° |
| 2026-04-27 13:28 | 51.56012 | 4.48474 | 26832 ft | 398 kts | 211° |
| 2026-04-27 13:28 | 51.53538 | 4.46569 | 27230 ft | 400 kts | 211° |
| 2026-04-27 13:28 | 51.51013 | 4.44630 | 27603 ft | 402 kts | 211° |
| 2026-04-27 13:28 | 51.48475 | 4.42686 | 27943 ft | 404 kts | 211° |
| 2026-04-27 13:29 | 51.45934 | 4.40744 | 28349 ft | 405 kts | 211° |
| 2026-04-27 13:29 | 51.43383 | 4.38799 | 28729 ft | 407 kts | 211° |
| 2026-04-27 13:29 | 51.40815 | 4.36841 | 29102 ft | 409 kts | 211° |
| 2026-04-27 13:29 | 51.38241 | 4.34878 | 29468 ft | 411 kts | 211° |
| 2026-04-27 13:30 | 51.35650 | 4.32903 | 29810 ft | 412 kts | 211° |
| 2026-04-27 13:30 | 51.33051 | 4.30926 | 30128 ft | 414 kts | 211° |
| 2026-04-27 13:30 | 51.30440 | 4.28945 | 30452 ft | 416 kts | 211° |
| 2026-04-27 13:30 | 51.27819 | 4.26956 | 30723 ft | 418 kts | 211° |
| 2026-04-27 13:31 | 51.25211 | 4.24978 | 30969 ft | 419 kts | 211° |
| 2026-04-27 13:31 | 51.22572 | 4.22982 | 31262 ft | 420 kts | 211° |
| 2026-04-27 13:31 | 51.19923 | 4.20980 | 31534 ft | 422 kts | 211° |
| 2026-04-27 13:31 | 51.17278 | 4.18982 | 31858 ft | 421 kts | 210° |
| 2026-04-27 13:32 | 51.14525 | 4.17288 | 32226 ft | 424 kts | 205° |
| 2026-04-27 13:32 | 51.11742 | 4.15758 | 32599 ft | 423 kts | 205° |
| 2026-04-27 13:32 | 51.08954 | 4.14233 | 32966 ft | 422 kts | 205° |
| 2026-04-27 13:32 | 51.06180 | 4.12720 | 33334 ft | 421 kts | 205° |
| 2026-04-27 13:33 | 51.03411 | 4.11207 | 33693 ft | 420 kts | 205° |
| 2026-04-27 13:33 | 51.00641 | 4.09694 | 34053 ft | 419 kts | 205° |
| 2026-04-27 13:33 | 50.97883 | 4.08192 | 34383 ft | 419 kts | 205° |
| 2026-04-27 13:33 | 50.95125 | 4.06692 | 34670 ft | 419 kts | 205° |
| 2026-04-27 13:34 | 50.92366 | 4.05191 | 34935 ft | 419 kts | 205° |
| 2026-04-27 13:34 | 50.89611 | 4.03691 | 35167 ft | 419 kts | 204° |
| 2026-04-27 13:34 | 50.86855 | 4.02168 | 35398 ft | 419 kts | 205° |
| 2026-04-27 13:34 | 50.84130 | 4.00525 | 35626 ft | 419 kts | 207° |
| 2026-04-27 13:35 | 50.81431 | 3.98790 | 35841 ft | 419 kts | 208° |
| 2026-04-27 13:35 | 50.78741 | 3.97010 | 36014 ft | 419 kts | 208° |
| 2026-04-27 13:35 | 50.76043 | 3.95210 | 36217 ft | 420 kts | 208° |
| 2026-04-27 13:35 | 50.73341 | 3.93428 | 36421 ft | 421 kts | 207° |
| 2026-04-27 13:36 | 50.70626 | 3.91672 | 36625 ft | 422 kts | 207° |
| 2026-04-27 13:36 | 50.67902 | 3.89934 | 36834 ft | 422 kts | 207° |
| 2026-04-27 13:36 | 50.65201 | 3.88223 | 37037 ft | 423 kts | 206° |
| 2026-04-27 13:36 | 50.62465 | 3.86499 | 37204 ft | 424 kts | 206° |
| 2026-04-27 13:37 | 50.57007 | 3.83046 | 37227 ft | 422 kts | 207° |
| 2026-04-27 13:37 | 50.51595 | 3.79433 | 37239 ft | 422 kts | 208° |
| 2026-04-27 13:38 | 50.46225 | 3.75702 | 37241 ft | 422 kts | 208° |
| 2026-04-27 13:38 | 50.40846 | 3.71982 | 37238 ft | 422 kts | 208° |
| 2026-04-27 13:39 | 50.35455 | 3.68325 | 37212 ft | 422 kts | 208° |
| 2026-04-27 13:39 | 50.30060 | 3.64691 | 37217 ft | 422 kts | 208° |
| 2026-04-27 13:40 | 50.24669 | 3.61052 | 37212 ft | 422 kts | 208° |
| 2026-04-27 13:40 | 50.19277 | 3.57420 | 37214 ft | 422 kts | 208° |
| 2026-04-27 13:41 | 50.13884 | 3.53800 | 37188 ft | 422 kts | 208° |
| 2026-04-27 13:41 | 50.08495 | 3.50197 | 37194 ft | 421 kts | 208° |
| 2026-04-27 13:42 | 50.03107 | 3.46592 | 37202 ft | 421 kts | 208° |
| 2026-04-27 13:42 | 49.98628 | 3.43609 | 37202 ft | 421 kts | 208° |
| 2026-04-27 13:43 | 49.93244 | 3.40023 | 37200 ft | 421 kts | 208° |
| 2026-04-27 13:43 | 49.87866 | 3.36445 | 37201 ft | 420 kts | 208° |
| 2026-04-27 13:44 | 49.82485 | 3.32885 | 37198 ft | 420 kts | 208° |
| 2026-04-27 13:44 | 49.77108 | 3.29342 | 37200 ft | 419 kts | 208° |
| 2026-04-27 13:45 | 49.71746 | 3.25817 | 37196 ft | 419 kts | 208° |
| 2026-04-27 13:45 | 49.66378 | 3.22286 | 37184 ft | 418 kts | 208° |
| 2026-04-27 13:46 | 49.61019 | 3.18763 | 37190 ft | 418 kts | 207° |
| 2026-04-27 13:46 | 49.55661 | 3.15252 | 37189 ft | 417 kts | 208° |
| 2026-04-27 13:47 | 49.50546 | 3.11279 | 37188 ft | 410 kts | 220° |
| 2026-04-27 13:47 | 49.46603 | 3.05141 | 37172 ft | 401 kts | 239° |
| 2026-04-27 13:48 | 49.43825 | 2.97745 | 37182 ft | 399 kts | 242° |
| 2026-04-27 13:48 | 49.41072 | 2.90336 | 37182 ft | 399 kts | 242° |
| 2026-04-27 13:49 | 49.38305 | 2.82944 | 37186 ft | 399 kts | 242° |
| 2026-04-27 13:49 | 49.35534 | 2.75547 | 37187 ft | 399 kts | 242° |
| 2026-04-27 13:50 | 49.32800 | 2.68136 | 37184 ft | 399 kts | 243° |
| 2026-04-27 13:50 | 49.30197 | 2.60682 | 37181 ft | 399 kts | 244° |
| 2026-04-27 13:51 | 49.27569 | 2.53104 | 37171 ft | 400 kts | 243° |
| 2026-04-27 13:51 | 49.24990 | 2.45544 | 37239 ft | 401 kts | 243° |
| 2026-04-27 13:52 | 49.22307 | 2.38046 | 37232 ft | 401 kts | 242° |
| 2026-04-27 13:52 | 49.19613 | 2.30628 | 37207 ft | 401 kts | 242° |
| 2026-04-27 13:53 | 49.15500 | 2.19434 | 37188 ft | 401 kts | 242° |
| 2026-04-27 13:54 | 49.12736 | 2.12022 | 37180 ft | 401 kts | 242° |
| 2026-04-27 13:54 | 49.09978 | 2.04609 | 37179 ft | 402 kts | 242° |
| 2026-04-27 13:55 | 49.07996 | 1.98209 | 37176 ft | 401 kts | 246° |
| 2026-04-27 13:55 | 49.05281 | 1.89151 | 37167 ft | 401 kts | 246° |
| 2026-04-27 13:56 | 49.02943 | 1.81419 | 37195 ft | 401 kts | 246° |
| 2026-04-27 13:56 | 49.00606 | 1.73696 | 37199 ft | 402 kts | 246° |
| 2026-04-27 13:57 | 48.98267 | 1.65973 | 37190 ft | 402 kts | 246° |
| 2026-04-27 13:57 | 48.95909 | 1.58249 | 37199 ft | 403 kts | 245° |
| 2026-04-27 13:58 | 48.93547 | 1.50510 | 37197 ft | 403 kts | 245° |
| 2026-04-27 13:58 | 48.91185 | 1.42789 | 37205 ft | 403 kts | 246° |
| 2026-04-27 13:59 | 48.89208 | 1.36364 | 37201 ft | 403 kts | 245° |
| 2026-04-27 13:59 | 48.86833 | 1.28638 | 37200 ft | 404 kts | 245° |
| 2026-04-27 14:00 | 48.84444 | 1.20909 | 37205 ft | 404 kts | 245° |
| 2026-04-27 14:00 | 48.82042 | 1.13176 | 37192 ft | 405 kts | 245° |
| 2026-04-27 14:01 | 48.79634 | 1.05445 | 37192 ft | 405 kts | 245° |
| 2026-04-27 14:01 | 48.77219 | 0.97693 | 37184 ft | 406 kts | 245° |
| 2026-04-27 14:02 | 48.74798 | 0.89967 | 37193 ft | 406 kts | 244° |
| 2026-04-27 14:02 | 48.71932 | 0.82609 | 37186 ft | 407 kts | 239° |
| 2026-04-27 14:03 | 48.68953 | 0.75254 | 37184 ft | 408 kts | 239° |
| 2026-04-27 14:03 | 48.66003 | 0.67981 | 37192 ft | 408 kts | 239° |
| 2026-04-27 14:04 | 48.63011 | 0.60623 | 37172 ft | 408 kts | 239° |
| 2026-04-27 14:04 | 48.60047 | 0.53364 | 37184 ft | 408 kts | 239° |
| 2026-04-27 14:05 | 48.57066 | 0.46072 | 37187 ft | 408 kts | 239° |
| 2026-04-27 14:05 | 48.54073 | 0.38777 | 37187 ft | 408 kts | 238° |
| 2026-04-27 14:06 | 48.51068 | 0.31480 | 37198 ft | 409 kts | 238° |
| 2026-04-27 14:06 | 48.48059 | 0.24181 | 37195 ft | 410 kts | 238° |
| 2026-04-27 14:07 | 48.45045 | 0.16892 | 37193 ft | 410 kts | 238° |
| 2026-04-27 14:07 | 48.42023 | 0.09602 | 37190 ft | 410 kts | 238° |
| 2026-04-27 14:08 | 48.38989 | 0.02312 | 37195 ft | 410 kts | 238° |
| 2026-04-27 14:08 | 48.35941 | -0.04951 | 37207 ft | 411 kts | 237° |
| 2026-04-27 14:09 | 48.32645 | -0.11905 | 37203 ft | 411 kts | 233° |
| 2026-04-27 14:09 | 48.29153 | -0.18729 | 37199 ft | 412 kts | 233° |
| 2026-04-27 14:10 | 48.25674 | -0.25565 | 37199 ft | 412 kts | 233° |
| 2026-04-27 14:10 | 48.22182 | -0.32448 | 37184 ft | 412 kts | 233° |
| 2026-04-27 14:11 | 48.18724 | -0.39222 | 37204 ft | 411 kts | 233° |
| 2026-04-27 14:11 | 48.15242 | -0.46016 | 37203 ft | 411 kts | 233° |
| 2026-04-27 14:12 | 48.11762 | -0.52795 | 37208 ft | 410 kts | 233° |
| 2026-04-27 14:12 | 48.08282 | -0.59561 | 37205 ft | 410 kts | 233° |
| 2026-04-27 14:13 | 48.04796 | -0.66325 | 37202 ft | 410 kts | 233° |
| 2026-04-27 14:13 | 48.01300 | -0.73075 | 37199 ft | 410 kts | 233° |
| 2026-04-27 14:14 | 47.97809 | -0.79793 | 37197 ft | 409 kts | 233° |
| 2026-04-27 14:14 | 47.94332 | -0.86496 | 37202 ft | 409 kts | 232° |
| 2026-04-27 14:15 | 47.90836 | -0.93206 | 37184 ft | 409 kts | 232° |
| 2026-04-27 14:15 | 47.87331 | -0.99920 | 37182 ft | 410 kts | 232° |
| 2026-04-27 14:16 | 47.84421 | -1.05483 | 37182 ft | 411 kts | 232° |
| 2026-04-27 14:16 | 47.80901 | -1.12193 | 37180 ft | 411 kts | 232° |
| 2026-04-27 14:17 | 47.77379 | -1.18886 | 37180 ft | 411 kts | 232° |
| 2026-04-27 14:17 | 47.73853 | -1.25578 | 37190 ft | 410 kts | 232° |
| 2026-04-27 14:18 | 47.70326 | -1.32253 | 37198 ft | 410 kts | 232° |
| 2026-04-27 14:18 | 47.66788 | -1.38934 | 37194 ft | 410 kts | 232° |
| 2026-04-27 14:19 | 47.63255 | -1.45592 | 37194 ft | 411 kts | 232° |
| 2026-04-27 14:19 | 47.59710 | -1.52231 | 37189 ft | 411 kts | 231° |
| 2026-04-27 14:20 | 47.55967 | -1.58633 | 37185 ft | 411 kts | 229° |
| 2026-04-27 14:20 | 47.52092 | -1.64851 | 37193 ft | 410 kts | 228° |
| 2026-04-27 14:21 | 47.48229 | -1.71068 | 37194 ft | 411 kts | 228° |
| 2026-04-27 14:21 | 47.44392 | -1.77340 | 37184 ft | 411 kts | 229° |
| 2026-04-27 14:22 | 47.40560 | -1.83629 | 37184 ft | 412 kts | 229° |
| 2026-04-27 14:22 | 47.36715 | -1.89904 | 37181 ft | 412 kts | 228° |
| 2026-04-27 14:23 | 47.32293 | -1.95222 | 37192 ft | 413 kts | 213° |
| 2026-04-27 14:23 | 47.27365 | -1.99613 | 37198 ft | 413 kts | 213° |
| 2026-04-27 14:24 | 47.22450 | -2.04005 | 37199 ft | 413 kts | 213° |
| 2026-04-27 14:24 | 47.17535 | -2.08399 | 37205 ft | 413 kts | 213° |
| 2026-04-27 14:25 | 47.12623 | -2.12779 | 37191 ft | 413 kts | 213° |
| 2026-04-27 14:25 | 47.07706 | -2.17147 | 37183 ft | 413 kts | 213° |
| 2026-04-27 14:26 | 47.02786 | -2.21509 | 37186 ft | 413 kts | 213° |
| 2026-04-27 14:26 | 46.97869 | -2.25858 | 37186 ft | 413 kts | 213° |
| 2026-04-27 14:27 | 46.92950 | -2.30192 | 37183 ft | 412 kts | 213° |
| 2026-04-27 14:27 | 46.88037 | -2.34508 | 37191 ft | 411 kts | 213° |
| 2026-04-27 14:28 | 46.83134 | -2.38820 | 37192 ft | 411 kts | 213° |
| 2026-04-27 14:28 | 46.78238 | -2.43127 | 37190 ft | 410 kts | 213° |
| 2026-04-27 14:29 | 46.73343 | -2.47414 | 37191 ft | 411 kts | 213° |
| 2026-04-27 14:29 | 46.68434 | -2.51700 | 37186 ft | 412 kts | 213° |
| 2026-04-27 14:30 | 46.63536 | -2.55967 | 37185 ft | 412 kts | 213° |
| 2026-04-27 14:30 | 46.58610 | -2.60256 | 37186 ft | 412 kts | 213° |
| 2026-04-27 14:31 | 46.53686 | -2.64534 | 37170 ft | 412 kts | 213° |
| 2026-04-27 14:31 | 46.48762 | -2.68805 | 37186 ft | 412 kts | 213° |
| 2026-04-27 14:32 | 46.43841 | -2.73051 | 37191 ft | 411 kts | 213° |
| 2026-04-27 14:32 | 46.38926 | -2.77290 | 37196 ft | 411 kts | 213° |
| 2026-04-27 14:33 | 46.34842 | -2.80812 | 37208 ft | 411 kts | 213° |
| 2026-04-27 14:33 | 46.29924 | -2.85037 | 37187 ft | 411 kts | 213° |
| 2026-04-27 14:34 | 46.25184 | -2.89627 | 37188 ft | 409 kts | 222° |
| 2026-04-27 14:34 | 46.20844 | -2.94961 | 37183 ft | 409 kts | 221° |
| 2026-04-27 14:35 | 46.16499 | -3.00269 | 37185 ft | 409 kts | 221° |
| 2026-04-27 14:35 | 46.12141 | -3.05570 | 37174 ft | 409 kts | 221° |
| 2026-04-27 14:36 | 46.07787 | -3.10836 | 37194 ft | 408 kts | 221° |
| 2026-04-27 14:36 | 46.03450 | -3.16090 | 37197 ft | 407 kts | 221° |
| 2026-04-27 14:37 | 45.99117 | -3.21332 | 37193 ft | 407 kts | 221° |
| 2026-04-27 14:37 | 45.94779 | -3.26576 | 37186 ft | 408 kts | 221° |
| 2026-04-27 14:38 | 45.90421 | -3.31831 | 37179 ft | 408 kts | 221° |
| 2026-04-27 14:38 | 45.86074 | -3.37064 | 37191 ft | 407 kts | 221° |
| 2026-04-27 14:39 | 45.81715 | -3.42283 | 37196 ft | 407 kts | 221° |
| 2026-04-27 14:39 | 45.77354 | -3.47507 | 37198 ft | 407 kts | 221° |
| 2026-04-27 14:40 | 45.73003 | -3.52706 | 37198 ft | 407 kts | 221° |
| 2026-04-27 14:40 | 45.68657 | -3.57902 | 37193 ft | 407 kts | 221° |
| 2026-04-27 14:41 | 45.64299 | -3.63077 | 37195 ft | 407 kts | 221° |
| 2026-04-27 14:41 | 45.59950 | -3.68231 | 37193 ft | 406 kts | 221° |
| 2026-04-27 14:42 | 45.55585 | -3.73402 | 37200 ft | 406 kts | 221° |
| 2026-04-27 14:42 | 45.51231 | -3.78548 | 37194 ft | 406 kts | 221° |
| 2026-04-27 14:43 | 45.46905 | -3.83657 | 37198 ft | 406 kts | 221° |
| 2026-04-27 14:43 | 45.42560 | -3.88781 | 37206 ft | 405 kts | 221° |
| 2026-04-27 14:44 | 45.38200 | -3.93905 | 37193 ft | 406 kts | 221° |
| 2026-04-27 14:44 | 45.33837 | -3.99019 | 37187 ft | 406 kts | 221° |
| 2026-04-27 14:45 | 45.29489 | -4.04099 | 37177 ft | 406 kts | 221° |
| 2026-04-27 14:45 | 45.25131 | -4.09193 | 37191 ft | 405 kts | 221° |
| 2026-04-27 14:46 | 45.20777 | -4.14267 | 37194 ft | 405 kts | 221° |
| 2026-04-27 14:46 | 45.16418 | -4.19328 | 37194 ft | 404 kts | 221° |
| 2026-04-27 14:47 | 45.12074 | -4.24379 | 37192 ft | 404 kts | 221° |
| 2026-04-27 14:47 | 45.07725 | -4.29425 | 37182 ft | 403 kts | 221° |
| 2026-04-27 14:48 | 45.03384 | -4.34446 | 37182 ft | 403 kts | 221° |
| 2026-04-27 14:48 | 44.96873 | -4.41943 | 37187 ft | 402 kts | 221° |
| 2026-04-27 14:49 | 44.93238 | -4.46130 | 37187 ft | 402 kts | 221° |
| 2026-04-27 14:49 | 44.88896 | -4.51119 | 37173 ft | 402 kts | 221° |
| 2026-04-27 14:50 | 44.84554 | -4.56099 | 37175 ft | 402 kts | 221° |
| 2026-04-27 14:50 | 44.80195 | -4.61074 | 37177 ft | 402 kts | 220° |
| 2026-04-27 14:51 | 44.75856 | -4.66028 | 37175 ft | 402 kts | 220° |
| 2026-04-27 14:51 | 44.71503 | -4.70981 | 37170 ft | 402 kts | 220° |
| 2026-04-27 14:52 | 44.67150 | -4.75926 | 37172 ft | 402 kts | 220° |
| 2026-04-27 14:52 | 44.62796 | -4.80869 | 37170 ft | 402 kts | 220° |
| 2026-04-27 14:53 | 44.58442 | -4.85806 | 37172 ft | 402 kts | 220° |
| 2026-04-27 14:53 | 44.54103 | -4.90709 | 37175 ft | 403 kts | 220° |
| 2026-04-27 14:54 | 44.49728 | -4.95615 | 37164 ft | 403 kts | 219° |
| 2026-04-27 14:54 | 44.45197 | -5.00275 | 37164 ft | 404 kts | 217° |
| 2026-04-27 14:55 | 44.40593 | -5.04807 | 37168 ft | 404 kts | 217° |
| 2026-04-27 14:55 | 44.35996 | -5.09347 | 37173 ft | 404 kts | 217° |
| 2026-04-27 14:56 | 44.31416 | -5.13916 | 37175 ft | 404 kts | 217° |
| 2026-04-27 14:56 | 44.26837 | -5.18510 | 37160 ft | 404 kts | 218° |
| 2026-04-27 14:57 | 44.22267 | -5.23080 | 37174 ft | 404 kts | 217° |
| 2026-04-27 14:57 | 44.17687 | -5.27635 | 37160 ft | 404 kts | 217° |
| 2026-04-27 14:58 | 44.13105 | -5.32188 | 37172 ft | 404 kts | 217° |
| 2026-04-27 14:58 | 44.08525 | -5.36727 | 37160 ft | 405 kts | 217° |